Stations météo

Publicité
Dunstaffnage, Grande-Bretagne (99006): Température de l'air & dewpoint: 15.04.2018 12:00:00 - 21.04.2018 12:00:00 (BST)Dunstaffnage, Grande-Bretagne (99006): Température de l'air -20cm: 15.04.2018 12:00:00 - 21.04.2018 12:00:00 (BST)Dunstaffnage, Grande-Bretagne (99006): Vitesse du vent & gusts: 15.04.2018 12:00:00 - 21.04.2018 12:00:00 (BST)Dunstaffnage, Grande-Bretagne (99006): Direction du vent: 15.04.2018 12:00:00 - 21.04.2018 12:00:00 (BST)Dunstaffnage, Grande-Bretagne (99006): Quantités de précipitations: 15.04.2018 12:00:00 - 21.04.2018 12:00:00 (BST)
Date & Time tt [°C] td [°C] tt -20cm [°C] ff [km/h] ff [knt] fx [km/h] fx [knt] dd rr [mm]
21.04.2018 12:00:00 13,2 7,4 - 13 7 - - WNW 0,0
21.04.2018 11:00:00 14,3 7,6 - 13 7 - - SSW 0,0
21.04.2018 10:00:00 12,4 6,4 9,7 15 8 - - S 0,0
21.04.2018 09:00:00 11,1 7,1 - 5 3 - - NE 0,0
21.04.2018 08:00:00 7,8 6,4 - 4 2 - - S 0,0
21.04.2018 07:00:00 6,9 6,0 - 8 4 - - ENE 0,0
21.04.2018 06:00:00 6,7 5,6 - 2 1 - - NNE 0,0
21.04.2018 05:00:00 7,7 5,9 - 11 6 - - SSE 0,0
21.04.2018 04:00:00 6,8 5,6 - 5 3 - - SW 0,0
21.04.2018 03:00:00 7,7 7,0 - 5 3 - - E 0,0
21.04.2018 02:00:00 7,8 7,1 - 4 2 - - SW 0,0
21.04.2018 01:00:00 8,0 7,1 - 2 1 - - WSW 0,0
21.04.2018 00:00:00 7,9 6,9 - 13 7 - - SSE 0,0
20.04.2018 23:00:00 7,8 7,0 - 8 4 - - SW 0,0
20.04.2018 22:00:00 8,3 7,2 - 9 5 - - SSW 0,0
20.04.2018 21:00:00 8,5 7,1 - 8 4 - - SW 0,0
20.04.2018 20:00:00 9,5 7,8 - 9 5 - - SW 0,0
20.04.2018 19:00:00 10,0 7,9 - 15 8 - - SW 0,0
20.04.2018 18:00:00 10,0 7,9 - 21 11 - - SW 0,0
20.04.2018 17:00:00 10,8 7,5 - 21 11 - - SW 0,0
20.04.2018 16:00:00 12,1 8,7 - 15 8 - - SW 0,0
20.04.2018 15:00:00 11,3 7,9 - 22 12 - - WSW 0,0
20.04.2018 14:00:00 10,8 8,4 - 18 10 - - SW 0,0
20.04.2018 13:00:00 11,1 7,6 - 18 10 - - SW 0,0
20.04.2018 12:00:00 10,6 7,3 - 16 9 - - SW 0,0
20.04.2018 11:00:00 9,4 8,5 - 11 6 - - WSW 0,2
20.04.2018 10:00:00 9,7 8,1 9,9 15 8 - - SW 0,0
20.04.2018 09:00:00 10,5 8,7 - 11 6 - - S 0,0
20.04.2018 08:00:00 9,8 9,2 - 8 4 - - S 0,0
20.04.2018 07:00:00 7,2 7,1 - 2 1 - - SSW 0,0
20.04.2018 06:00:00 6,2 6,0 - 2 1 - - S 0,0
20.04.2018 05:00:00 6,3 6,0 - 2 1 - - WSW 0,0
20.04.2018 04:00:00 7,2 6,7 - 2 1 - - ESE 0,0
20.04.2018 03:00:00 8,0 7,4 - 2 1 - - WNW 0,0
20.04.2018 02:00:00 8,6 7,8 - 2 1 - - WNW 0,0
20.04.2018 01:00:00 9,0 7,9 - 2 1 - - S 0,0
20.04.2018 00:00:00 9,0 7,6 - 2 1 - - ENE 0,0
19.04.2018 23:00:00 9,6 8,1 - 5 3 - - E 0,0
19.04.2018 22:00:00 10,3 8,1 - 4 2 - - NE 0,0
19.04.2018 21:00:00 11,2 9,1 - 5 3 - - SW 0,0
19.04.2018 20:00:00 10,9 8,9 - 8 4 - - W 0,0
19.04.2018 19:00:00 11,8 9,2 - 13 7 - - W 0,0
19.04.2018 18:00:00 13,6 10,3 - 13 7 - - WSW 0,0
19.04.2018 17:00:00 13,0 9,1 - 16 9 - - W 0,0
19.04.2018 16:00:00 15,8 10,6 - 11 6 - - SSW 0,0
19.04.2018 15:00:00 14,9 10,7 - 11 6 - - SW 0,0
19.04.2018 14:00:00 14,8 10,6 - 15 8 - - WSW 0,0
19.04.2018 13:00:00 13,6 10,3 - 11 6 - - WSW 0,0
19.04.2018 12:00:00 13,7 10,8 - 9 5 - - S 0,0
19.04.2018 11:00:00 11,8 9,2 - 8 4 - - W 0,0
19.04.2018 10:00:00 10,8 9,5 10,0 9 5 - - W 0,0
19.04.2018 09:00:00 11,4 10,2 - 4 2 - - ESE -
19.04.2018 08:00:00 - - - - - - - - -
19.04.2018 07:00:00 - - - - - - - - -
19.04.2018 06:00:00 - - - - - - - - -
19.04.2018 05:00:00 - - - - - - - - -
19.04.2018 04:00:00 - - - - - - - - -
19.04.2018 03:00:00 - - - - - - - - -
19.04.2018 02:00:00 14,1 8,9 - 15 8 - - SSE 0,0
19.04.2018 01:00:00 15,3 8,7 - 18 10 - - S 0,0
19.04.2018 00:00:00 15,6 9,0 - 26 14 46 25 S 0,0
18.04.2018 23:00:00 16,2 10,3 - 16 9 - - S 0,0
18.04.2018 22:00:00 16,5 10,8 - 16 9 - - S 0,0
18.04.2018 21:00:00 15,8 9,7 - 9 5 - - S 0,0
18.04.2018 20:00:00 14,9 9,9 - 9 5 - - SSE 0,0
18.04.2018 19:00:00 14,2 9,9 - 15 8 - - SSE 0,0
18.04.2018 18:00:00 14,3 9,9 - 16 9 - - ESE 0,0
18.04.2018 17:00:00 14,6 10,8 - 13 7 - - S 0,0
18.04.2018 16:00:00 13,6 9,7 - 13 7 - - SSE 0,0
18.04.2018 15:00:00 12,8 9,5 - 13 7 - - SSE 0,0
18.04.2018 14:00:00 12,4 9,5 - 18 10 - - ESE 0,0
18.04.2018 13:00:00 12,8 9,5 - 15 8 - - SSE 0,0
18.04.2018 12:00:00 12,8 10,1 - 11 6 - - SSE 0,0
18.04.2018 11:00:00 12,4 9,8 - 13 7 - - S 0,0
18.04.2018 10:00:00 11,7 9,5 9,5 13 7 - - S 0,0
18.04.2018 09:00:00 11,4 8,8 - 8 4 - - SSE 0,0
18.04.2018 08:00:00 10,8 8,4 - 16 9 - - ESE 0,0
18.04.2018 07:00:00 10,6 8,2 - 15 8 - - ESE 0,0
18.04.2018 06:00:00 10,5 7,9 - 15 8 - - ESE 0,0
18.04.2018 05:00:00 10,6 7,8 - 11 6 - - SE 0,0
18.04.2018 04:00:00 10,9 8,0 - 8 4 - - SSE 0,0
18.04.2018 03:00:00 10,6 7,8 - 15 8 - - S 0,0
18.04.2018 02:00:00 10,7 8,0 - 11 6 - - SSE 0,0
18.04.2018 01:00:00 11,1 8,3 - 15 8 - - SSE 0,0
18.04.2018 00:00:00 11,3 8,5 - 16 9 - - SSE 0,0
17.04.2018 23:00:00 11,0 8,5 - 16 9 - - SE 0,0
17.04.2018 22:00:00 10,9 8,3 - 22 12 - - ESE 0,0
17.04.2018 21:00:00 11,4 8,9 - 13 7 - - SE 0,0
17.04.2018 20:00:00 11,6 8,8 - 15 8 - - SE 0,0
17.04.2018 19:00:00 12,4 9,4 - 18 10 46 25 S 0,0
17.04.2018 18:00:00 12,7 9,7 - 21 11 - - S 0,8
17.04.2018 17:00:00 12,0 9,9 - 16 9 46 25 S 2,2
17.04.2018 16:00:00 13,1 10,4 - 13 7 - - SSE 0,6
17.04.2018 15:00:00 14,9 8,9 - 24 13 - - S 0,0
17.04.2018 14:00:00 13,6 9,0 - 21 11 - - SSE 0,0
17.04.2018 13:00:00 13,7 8,6 - 26 14 52 28 S 0,0
17.04.2018 12:00:00 13,8 9,1 - 21 11 - - S 0,0
17.04.2018 11:00:00 12,8 9,0 - 26 14 46 25 S 0,0
17.04.2018 10:00:00 11,7 8,7 9,0 28 15 48 26 S 0,0
17.04.2018 09:00:00 10,7 8,5 - 28 15 55 30 S 0,6
17.04.2018 08:00:00 10,7 8,9 - 28 15 57 31 S 1,4
17.04.2018 07:00:00 10,1 8,5 - 11 6 - - S 2,6
17.04.2018 06:00:00 9,9 8,3 - 16 9 54 29 S 1,0
17.04.2018 05:00:00 9,7 7,9 - 15 8 46 25 SSE 2,2
17.04.2018 04:00:00 9,8 7,9 - 16 9 48 26 ESE 2,2
17.04.2018 03:00:00 9,8 7,7 - 21 11 55 30 ESE 0,0
17.04.2018 02:00:00 10,2 7,0 - 15 8 - - SE 0,0
17.04.2018 01:00:00 9,7 7,0 - 15 8 52 28 SSE 0,2
17.04.2018 00:00:00 9,4 7,0 - 16 9 46 25 SE 0,2
16.04.2018 23:00:00 9,4 6,9 - 18 10 - - ESE 0,2
16.04.2018 22:00:00 9,9 6,1 - 16 9 48 26 SE 0,0
16.04.2018 21:00:00 10,0 5,8 - 16 9 - - SE 0,0
16.04.2018 20:00:00 10,4 5,6 - 21 11 - - SE 0,0
16.04.2018 19:00:00 10,7 5,7 - 13 7 - - ESE 0,0
16.04.2018 18:00:00 11,3 5,2 - 13 7 - - SE 0,0
16.04.2018 17:00:00 11,9 4,8 - 16 9 - - ESE 0,0
16.04.2018 16:00:00 12,3 4,0 - 18 10 - - S 0,0
16.04.2018 15:00:00 11,9 4,5 - 18 10 - - S 0,0
16.04.2018 14:00:00 13,1 6,2 - 18 10 - - S 0,0
16.04.2018 13:00:00 13,0 7,2 - 18 10 - - S 0,0
16.04.2018 12:00:00 11,1 6,5 - 15 8 - - S 0,0
16.04.2018 11:00:00 10,3 8,3 - 16 9 - - SSW 0,2
16.04.2018 10:00:00 9,9 9,1 8,7 8 4 - - S 0,0
16.04.2018 09:00:00 9,6 8,5 - 11 6 - - S 0,6
16.04.2018 08:00:00 9,2 8,2 - 11 6 - - ESE 0,0
16.04.2018 07:00:00 9,7 7,6 - 8 4 - - SSE 0,0
16.04.2018 06:00:00 9,8 7,8 - 13 7 - - ESE 0,0
16.04.2018 05:00:00 9,8 7,8 - 8 4 - - ESE 0,0
16.04.2018 04:00:00 9,3 7,4 - 11 6 - - E 0,0
16.04.2018 03:00:00 9,7 7,5 - 18 10 - - E 0,0
16.04.2018 02:00:00 9,8 7,6 - 16 9 - - ESE 0,0
16.04.2018 01:00:00 9,7 7,7 - 13 7 - - E 0,2
16.04.2018 00:00:00 10,2 7,4 - 16 9 - - ESE 0,0
15.04.2018 23:00:00 10,3 7,5 - 21 11 - - ESE 0,0
15.04.2018 22:00:00 10,3 7,5 - 21 11 - - E 0,0
15.04.2018 21:00:00 10,4 7,2 - 13 7 - - E 0,0
15.04.2018 20:00:00 10,1 7,8 - 15 8 - - E 0,0
15.04.2018 19:00:00 9,3 7,9 - 15 8 - - E 1,8
15.04.2018 18:00:00 10,2 8,6 - 5 3 - - SE 4,0
15.04.2018 17:00:00 12,5 9,5 - 21 11 - - E 0,2
15.04.2018 16:00:00 13,4 8,9 - 28 15 50 27 E 0,6
15.04.2018 15:00:00 14,3 7,5 - 26 14 54 29 ESE 0,0
15.04.2018 14:00:00 14,7 7,6 - 35 19 54 29 E 0,0
15.04.2018 13:00:00 14,1 7,0 - 35 19 52 28 ESE 0,0
15.04.2018 12:00:00 14,1 6,4 - 34 18 57 31 E 0,0

tt = Température de l'air
td = dewpoint
tt -20cm = Température de l'air -20cm
ff = Vitesse du vent
fx = gusts
dd = Direction du vent
rr = Quantités de précipitations

stations d'obs. à proximité